createdAt,value
2023-01-25T00:02:07.692Z,90.50
2023-01-25T00:04:34.389Z,90.50
2023-01-25T00:07:01.051Z,90.60
2023-01-25T00:09:27.750Z,90.50
2023-01-25T00:11:56.386Z,90.50
2023-01-25T00:14:23.529Z,90.50
2023-01-25T00:16:50.609Z,90.50
2023-01-25T00:19:17.464Z,90.60
2023-01-25T00:21:44.165Z,90.70
2023-01-25T00:24:11.878Z,90.60
2023-01-25T00:26:39.176Z,90.60
2023-01-25T00:29:10.775Z,90.60
2023-01-25T00:31:59.159Z,90.60
2023-01-25T00:34:25.885Z,90.60
2023-01-25T00:37:18.488Z,90.60
2023-01-25T00:39:45.181Z,90.60
2023-01-25T00:42:12.879Z,90.60
2023-01-25T00:44:40.063Z,90.50
2023-01-25T00:47:09.381Z,90.60
2023-01-25T00:49:36.117Z,90.60
2023-01-25T00:52:03.019Z,90.60
2023-01-25T00:54:29.944Z,90.50
2023-01-25T00:56:56.763Z,90.60
2023-01-25T00:59:24.329Z,90.60
2023-01-25T01:01:52.280Z,90.60
2023-01-25T01:04:20.110Z,90.60
2023-01-25T01:06:46.771Z,90.60
2023-01-25T01:09:15.018Z,90.60
2023-01-25T01:11:42.189Z,90.50
2023-01-25T01:14:09.257Z,90.50
2023-01-25T01:16:35.940Z,90.60
2023-01-25T01:19:02.687Z,90.60
2023-01-25T01:21:29.357Z,90.60
2023-01-25T01:23:57.331Z,90.60
2023-01-25T01:26:24.118Z,90.50
2023-01-25T01:28:51.028Z,90.60
2023-01-25T01:31:19.510Z,90.60
2023-01-25T01:33:55.324Z,90.50
2023-01-25T01:36:23.809Z,90.50
2023-01-25T01:38:50.455Z,90.50
2023-01-25T01:41:17.484Z,90.50
2023-01-25T01:43:44.840Z,90.50
2023-01-25T01:46:23.647Z,90.50
2023-01-25T01:49:01.081Z,90.50
2023-01-25T01:51:28.467Z,90.50
2023-01-25T01:54:00.655Z,90.50
2023-01-25T01:56:31.154Z,90.50
2023-01-25T01:59:01.484Z,90.50
2023-01-25T02:01:28.406Z,90.50
2023-01-25T02:07:33.947Z,90.50
2023-01-25T02:10:03.414Z,90.50
2023-01-25T02:12:30.221Z,90.60
2023-01-25T02:14:56.881Z,90.60
2023-01-25T02:17:31.300Z,90.60
2023-01-25T02:20:01.749Z,90.60
2023-01-25T02:22:43.608Z,90.60
2023-01-25T02:25:11.432Z,90.60
2023-01-25T02:27:40.954Z,90.60
2023-01-25T02:30:09.030Z,90.60
2023-01-25T02:32:35.888Z,90.60
2023-01-25T02:35:04.079Z,90.60
2023-01-25T02:37:31.002Z,90.60
2023-01-25T02:39:57.691Z,90.60
2023-01-25T02:42:29.987Z,90.60
2023-01-25T02:44:57.321Z,90.60
2023-01-25T02:47:24.777Z,90.60
2023-01-25T02:49:51.604Z,90.60
2023-01-25T02:52:18.717Z,90.50
2023-01-25T02:54:45.737Z,90.60
2023-01-25T02:57:12.474Z,90.60
2023-01-25T02:59:43.508Z,90.60
2023-01-25T03:02:12.199Z,90.70
2023-01-25T03:04:38.899Z,90.60
2023-01-25T03:07:06.534Z,90.60
2023-01-25T03:09:33.191Z,90.50
2023-01-25T03:12:00.170Z,90.50
2023-01-25T03:14:26.845Z,90.50
2023-01-25T03:16:53.565Z,90.50
2023-01-25T03:19:23.252Z,90.50
2023-01-25T03:21:50.371Z,90.50
2023-01-25T03:24:18.292Z,90.50
2023-01-25T03:27:06.250Z,90.50
2023-01-25T03:29:41.677Z,90.50
2023-01-25T03:32:13.628Z,90.60
2023-01-25T03:34:40.504Z,90.70
2023-01-25T03:37:07.752Z,90.70
2023-01-25T03:39:35.885Z,90.70
2023-01-25T03:42:03.033Z,90.60
2023-01-25T03:44:31.348Z,90.70
2023-01-25T03:46:58.679Z,90.60
2023-01-25T03:49:25.492Z,90.60
2023-01-25T03:51:53.298Z,90.50
2023-01-25T03:54:26.511Z,90.50
2023-01-25T03:56:53.532Z,90.50
2023-01-25T03:59:24.885Z,90.50
2023-01-25T04:01:51.931Z,90.60
2023-01-25T04:04:19.356Z,90.50
2023-01-25T04:06:48.041Z,90.50
2023-01-25T04:09:15.445Z,90.50
2023-01-25T04:11:49.268Z,90.60
2023-01-25T04:14:15.963Z,90.50
2023-01-25T04:16:51.572Z,90.50
2023-01-25T04:19:24.421Z,90.50
2023-01-25T04:21:51.396Z,90.60
2023-01-25T04:24:18.694Z,90.70
2023-01-25T04:26:45.538Z,90.70
2023-01-25T04:29:12.931Z,90.70
2023-01-25T04:31:40.040Z,90.60
2023-01-25T04:34:06.842Z,90.50
2023-01-25T04:36:33.675Z,90.60
2023-01-25T04:39:00.472Z,90.60
2023-01-25T04:41:29.478Z,90.60
2023-01-25T04:43:57.199Z,90.50
2023-01-25T04:46:24.973Z,90.50
2023-01-25T04:48:53.733Z,90.40
2023-01-25T04:51:21.093Z,90.40
2023-01-25T04:53:47.905Z,90.50
2023-01-25T04:56:14.940Z,90.50
2023-01-25T04:58:47.692Z,90.50
2023-01-25T05:01:14.780Z,90.50
2023-01-25T05:03:41.667Z,90.50
2023-01-25T05:06:17.289Z,90.50
2023-01-25T05:08:44.356Z,90.60
2023-01-25T05:11:11.308Z,90.50
2023-01-25T05:13:50.205Z,90.50
2023-01-25T05:16:22.483Z,90.60
2023-01-25T05:18:49.732Z,90.70
2023-01-25T05:21:47.888Z,90.70
2023-01-25T05:24:14.879Z,90.70
2023-01-25T05:27:00.687Z,90.60
2023-01-25T05:29:37.784Z,90.50
2023-01-25T05:32:08.094Z,90.50
2023-01-25T05:34:35.400Z,90.40
2023-01-25T05:37:03.609Z,90.40
2023-01-25T05:39:30.799Z,90.50
2023-01-25T05:41:57.526Z,90.50
2023-01-25T05:44:25.036Z,90.50
2023-01-25T05:46:52.651Z,90.50
2023-01-25T05:49:19.693Z,90.40
2023-01-25T05:51:46.810Z,90.50
2023-01-25T05:54:16.164Z,90.70
2023-01-25T05:56:49.781Z,90.70
2023-01-25T05:59:17.474Z,90.70
2023-01-25T06:01:44.353Z,90.70
2023-01-25T06:04:14.304Z,90.70
2023-01-25T06:06:41.131Z,90.60
2023-01-25T06:09:07.881Z,90.50
2023-01-25T06:11:35.069Z,90.40
2023-01-25T06:14:04.013Z,90.40
2023-01-25T06:16:31.501Z,90.40
2023-01-25T06:19:06.782Z,90.50
2023-01-25T06:21:52.057Z,90.60
2023-01-25T06:24:18.822Z,90.50
2023-01-25T06:26:45.548Z,90.50
2023-01-25T06:29:12.245Z,90.50
2023-01-25T06:31:39.113Z,90.50
2023-01-25T06:34:06.439Z,90.50
2023-01-25T06:36:33.476Z,90.50
2023-01-25T06:39:00.414Z,90.50
2023-01-25T06:41:27.048Z,90.50
2023-01-25T06:43:53.815Z,90.50
2023-01-25T06:46:20.636Z,90.50
2023-01-25T06:48:47.699Z,90.50
2023-01-25T06:51:14.926Z,90.70
2023-01-25T06:53:42.751Z,90.80
2023-01-25T06:56:13.732Z,90.70
2023-01-25T06:58:40.846Z,90.70
2023-01-25T07:01:10.685Z,90.60
2023-01-25T07:03:37.308Z,90.60
2023-01-25T07:06:07.017Z,90.80
2023-01-25T07:08:34.483Z,91.00
2023-01-25T07:11:01.801Z,91.10
2023-01-25T07:13:29.490Z,91.20
2023-01-25T07:16:00.511Z,91.20
2023-01-25T07:18:28.182Z,91.10
2023-01-25T07:20:54.820Z,91.00
2023-01-25T07:23:21.707Z,91.00
2023-01-25T07:25:49.128Z,91.30
2023-01-25T07:28:16.881Z,90.90
2023-01-25T07:30:43.803Z,90.80
2023-01-25T07:33:10.973Z,90.80
2023-01-25T07:35:37.924Z,90.80
2023-01-25T07:38:04.820Z,90.80
2023-01-25T07:40:31.434Z,90.80
2023-01-25T07:42:58.865Z,90.80
2023-01-25T07:45:30.333Z,90.80
2023-01-25T07:47:58.187Z,90.80
2023-01-25T07:50:26.207Z,90.80
2023-01-25T07:52:53.321Z,90.70
2023-01-25T07:55:20.269Z,90.70
2023-01-25T07:57:49.034Z,90.70
2023-01-25T08:00:15.941Z,90.70
2023-01-25T08:02:43.425Z,90.70
2023-01-25T08:05:10.922Z,90.80
2023-01-25T08:07:37.916Z,90.90
2023-01-25T08:10:06.910Z,91.10
2023-01-25T08:12:34.271Z,91.10
2023-01-25T08:15:02.388Z,91.10
2023-01-25T08:17:32.682Z,91.10
2023-01-25T08:20:00.055Z,91.00
2023-01-25T08:22:27.330Z,91.00
2023-01-25T08:24:54.441Z,91.00
2023-01-25T08:27:21.302Z,91.00
2023-01-25T08:29:50.338Z,90.90
2023-01-25T08:32:17.026Z,91.00
2023-01-25T08:34:44.384Z,90.90
2023-01-25T08:37:12.007Z,90.90
2023-01-25T08:39:38.613Z,90.90
2023-01-25T08:42:06.171Z,90.80
2023-01-25T08:44:33.022Z,90.80
2023-01-25T08:46:59.604Z,90.80
2023-01-25T08:49:27.542Z,90.80
2023-01-25T08:51:54.315Z,90.70
2023-01-25T08:54:21.193Z,90.80
2023-01-25T08:56:47.857Z,90.80
2023-01-25T08:59:14.468Z,90.80
2023-01-25T09:01:41.402Z,90.70
2023-01-25T09:04:07.997Z,90.70
2023-01-25T09:06:34.819Z,90.70
2023-01-25T09:09:01.554Z,90.80
2023-01-25T09:11:28.196Z,90.90
2023-01-25T09:13:54.971Z,91.00
2023-01-25T09:16:28.224Z,90.90
2023-01-25T09:18:56.453Z,91.30
2023-01-25T09:21:23.208Z,90.90
2023-01-25T09:24:04.479Z,90.90
2023-01-25T09:26:33.323Z,90.90
2023-01-25T09:29:00.084Z,90.80
2023-01-25T09:31:29.861Z,90.80
2023-01-25T09:34:14.937Z,90.70
2023-01-25T09:36:41.863Z,90.70
2023-01-25T09:39:09.967Z,90.80
2023-01-25T09:42:13.970Z,90.90
2023-01-25T09:44:46.330Z,91.00
2023-01-25T09:47:28.446Z,91.00
2023-01-25T09:50:01.176Z,91.00
2023-01-25T09:52:46.893Z,90.90
2023-01-25T09:55:14.865Z,90.90
2023-01-25T09:57:43.027Z,90.90
2023-01-25T10:00:13.244Z,91.00
2023-01-25T10:02:43.763Z,91.00
2023-01-25T10:05:21.748Z,91.00
2023-01-25T10:07:53.925Z,91.00
2023-01-25T10:10:29.307Z,91.00
2023-01-25T10:12:56.170Z,91.00
2023-01-25T10:15:24.060Z,91.10
2023-01-25T10:18:16.892Z,91.20
2023-01-25T10:20:53.669Z,91.20
2023-01-25T10:23:23.572Z,91.20
2023-01-25T10:26:14.927Z,91.10
2023-01-25T10:28:46.151Z,91.10
2023-01-25T10:31:12.815Z,91.00
2023-01-25T10:33:40.474Z,91.00
2023-01-25T10:36:07.251Z,91.00
2023-01-25T10:38:36.397Z,91.00
2023-01-25T10:41:05.238Z,91.00
2023-01-25T10:43:32.168Z,90.90
2023-01-25T10:45:59.030Z,90.90
2023-01-25T10:48:43.899Z,90.90
2023-01-25T10:51:27.725Z,90.90
2023-01-25T10:54:04.738Z,90.90
2023-01-25T10:56:35.617Z,90.90
2023-01-25T10:59:22.636Z,90.90
2023-01-25T11:01:49.499Z,90.90
2023-01-25T11:04:47.668Z,90.90
2023-01-25T11:07:32.598Z,90.90
2023-01-25T11:09:59.258Z,91.00
2023-01-25T11:12:25.892Z,90.90
2023-01-25T11:14:54.912Z,91.00
2023-01-25T11:17:23.906Z,91.00
2023-01-25T11:20:04.027Z,91.00
2023-01-25T11:22:30.810Z,91.00
2023-01-25T11:24:57.434Z,91.00
2023-01-25T11:27:25.001Z,90.90
2023-01-25T11:30:14.609Z,90.90
2023-01-25T11:32:41.598Z,91.10
2023-01-25T11:35:26.974Z,91.10
2023-01-25T11:38:12.627Z,91.70
2023-01-25T11:40:50.680Z,91.30
2023-01-25T11:43:38.170Z,91.30
2023-01-25T11:46:24.091Z,91.20
2023-01-25T11:48:50.766Z,91.10
2023-01-25T11:51:40.144Z,91.10
2023-01-25T11:54:21.201Z,91.10
2023-01-25T11:56:47.796Z,91.00
2023-01-25T11:59:33.432Z,91.00
2023-01-25T12:02:08.531Z,91.00
2023-01-25T12:04:54.356Z,91.00
2023-01-25T12:07:38.582Z,91.10
2023-01-25T12:10:22.555Z,91.00
2023-01-25T12:13:04.468Z,91.00
2023-01-25T12:15:31.050Z,91.00
2023-01-25T12:18:06.836Z,91.00
2023-01-25T12:20:39.137Z,90.90
2023-01-25T12:23:24.409Z,90.90
2023-01-25T12:26:00.212Z,90.90
2023-01-25T12:28:36.049Z,90.90
2023-01-25T12:31:07.824Z,91.00
2023-01-25T12:33:38.702Z,91.00
2023-01-25T12:36:13.513Z,91.00
2023-01-25T12:38:42.690Z,91.00
2023-01-25T12:41:15.453Z,91.20
2023-01-25T12:43:46.402Z,91.20
2023-01-25T12:46:20.976Z,91.20
2023-01-25T12:48:50.413Z,91.30
2023-01-25T12:51:17.568Z,91.20
2023-01-25T12:53:47.501Z,91.10
2023-01-25T12:56:26.070Z,91.10
2023-01-25T12:58:56.512Z,91.10
2023-01-25T13:01:34.263Z,91.10
2023-01-25T13:04:06.262Z,91.10
2023-01-25T13:06:36.725Z,91.00
2023-01-25T13:09:09.345Z,91.10
2023-01-25T13:11:39.909Z,91.10
2023-01-25T13:14:15.912Z,91.20
2023-01-25T13:16:50.154Z,91.20
2023-01-25T13:19:38.168Z,91.20
2023-01-25T13:22:04.964Z,91.20
2023-01-25T13:24:33.015Z,91.10
2023-01-25T13:26:59.707Z,91.00
2023-01-25T13:29:35.716Z,91.00
2023-01-25T13:32:03.967Z,91.10
2023-01-25T13:34:38.173Z,91.20
2023-01-25T13:37:17.815Z,91.20
2023-01-25T13:39:49.859Z,91.20
2023-01-25T13:42:23.173Z,91.00
2023-01-25T13:44:51.941Z,91.10
2023-01-25T13:47:23.593Z,91.10
2023-01-25T13:49:54.855Z,91.10
2023-01-25T13:52:22.940Z,91.10
2023-01-25T13:54:50.218Z,91.50
2023-01-25T13:57:21.144Z,91.00
2023-01-25T13:59:49.545Z,91.00
2023-01-25T14:02:21.817Z,91.00
2023-01-25T14:04:49.780Z,91.00
2023-01-25T14:07:18.538Z,91.00
2023-01-25T14:09:45.373Z,91.00
2023-01-25T14:12:12.249Z,90.90
2023-01-25T14:14:39.389Z,90.90
2023-01-25T14:17:16.872Z,91.00
2023-01-25T14:19:44.774Z,90.90
2023-01-25T14:22:27.991Z,90.90
2023-01-25T14:25:01.950Z,90.80
2023-01-25T14:27:29.180Z,90.90
2023-01-25T14:29:56.141Z,91.00
2023-01-25T14:32:25.130Z,91.00
2023-01-25T14:34:52.194Z,91.00
2023-01-25T14:37:20.946Z,91.00
2023-01-25T14:39:48.838Z,91.00
2023-01-25T14:42:16.598Z,91.00
2023-01-25T14:44:43.812Z,91.00
2023-01-25T14:47:24.304Z,91.00
2023-01-25T14:49:51.459Z,91.00
2023-01-25T14:52:19.843Z,91.00
2023-01-25T14:54:57.372Z,90.90
2023-01-25T14:57:37.700Z,90.90
2023-01-25T15:00:08.420Z,90.90
2023-01-25T15:02:44.183Z,90.90
2023-01-25T15:05:23.449Z,90.90
2023-01-25T15:07:54.886Z,91.00
2023-01-25T15:10:31.801Z,91.00
2023-01-25T15:13:13.753Z,91.00
2023-01-25T15:15:52.392Z,91.10
2023-01-25T15:18:42.817Z,91.50
2023-01-25T15:21:10.538Z,91.10
2023-01-25T15:23:37.321Z,91.00
2023-01-25T15:26:11.944Z,91.00
2023-01-25T15:28:38.713Z,91.10
2023-01-25T15:31:05.808Z,91.10
2023-01-25T15:33:34.546Z,91.10
2023-01-25T15:36:01.233Z,91.10
2023-01-25T15:38:28.099Z,91.00
2023-01-25T15:41:00.482Z,91.10
2023-01-25T15:43:27.571Z,91.00
2023-01-25T15:45:57.340Z,91.00
2023-01-25T15:48:32.994Z,91.40
2023-01-25T15:51:00.048Z,91.00
2023-01-25T15:53:26.939Z,91.00
2023-01-25T15:56:04.864Z,91.00
2023-01-25T15:58:34.602Z,91.00
2023-01-25T16:01:01.665Z,90.90
2023-01-25T16:03:29.152Z,90.90
2023-01-25T16:06:01.120Z,90.80
2023-01-25T16:08:33.497Z,91.10
2023-01-25T16:11:00.676Z,91.30
2023-01-25T16:13:27.502Z,91.40
2023-01-25T16:15:55.918Z,91.40
2023-01-25T16:18:22.619Z,91.30
2023-01-25T16:20:50.047Z,91.20
2023-01-25T16:23:16.800Z,91.10
2023-01-25T16:25:44.412Z,91.00
2023-01-25T16:28:15.611Z,91.00
2023-01-25T16:30:44.926Z,90.90
2023-01-25T16:33:11.860Z,91.00
2023-01-25T16:35:38.624Z,91.00
2023-01-25T16:38:05.378Z,90.90
2023-01-25T16:40:36.660Z,90.90
2023-01-25T16:43:04.167Z,90.90
2023-01-25T16:45:31.494Z,90.80
2023-01-25T16:47:58.359Z,90.90
2023-01-25T16:50:26.680Z,91.00
2023-01-25T16:52:56.887Z,91.00
2023-01-25T16:55:23.644Z,90.90
2023-01-25T16:57:51.053Z,90.90
2023-01-25T17:00:18.186Z,90.90
2023-01-25T17:02:58.120Z,90.90
2023-01-25T17:05:33.604Z,90.80
2023-01-25T17:08:00.407Z,90.80
2023-01-25T17:10:27.444Z,90.80
2023-01-25T17:12:54.311Z,90.80
2023-01-25T17:15:21.118Z,90.80
2023-01-25T17:17:47.966Z,90.90
2023-01-25T17:20:15.126Z,91.00
2023-01-25T17:22:42.569Z,91.10
2023-01-25T17:25:09.543Z,91.20
2023-01-25T17:27:36.469Z,91.10
2023-01-25T17:30:04.069Z,91.20
2023-01-25T17:32:30.998Z,91.20
2023-01-25T17:34:59.179Z,91.30
2023-01-25T17:37:26.028Z,91.40
2023-01-25T17:39:53.610Z,91.30
2023-01-25T17:42:22.186Z,91.30
2023-01-25T17:44:49.018Z,91.20
2023-01-25T17:47:15.870Z,91.10
2023-01-25T17:49:42.601Z,91.10
2023-01-25T17:52:09.691Z,91.10
2023-01-25T17:54:36.569Z,91.20
2023-01-25T17:57:03.518Z,91.20
2023-01-25T17:59:30.167Z,91.20
2023-01-25T18:01:57.812Z,91.10
2023-01-25T18:04:25.464Z,91.10
2023-01-25T18:06:52.489Z,91.10
2023-01-25T18:09:19.341Z,91.10
2023-01-25T18:11:46.223Z,91.20
2023-01-25T18:14:15.291Z,91.20
2023-01-25T18:16:42.290Z,91.20
2023-01-25T18:19:09.234Z,91.10
2023-01-25T18:21:36.645Z,91.10
2023-01-25T18:24:05.490Z,91.10
2023-01-25T18:26:34.964Z,91.10
2023-01-25T18:29:06.212Z,91.10
2023-01-25T18:31:33.146Z,91.00
2023-01-25T18:33:59.933Z,91.00
2023-01-25T18:36:26.660Z,91.10
2023-01-25T18:38:55.035Z,91.00
2023-01-25T18:41:22.104Z,91.00
2023-01-25T18:43:49.987Z,91.00
2023-01-25T18:46:16.974Z,91.00
2023-01-25T18:48:47.054Z,90.90
2023-01-25T18:51:15.496Z,90.90
2023-01-25T18:53:42.570Z,90.90
2023-01-25T18:56:19.917Z,90.90
2023-01-25T18:58:47.404Z,90.90
2023-01-25T19:01:15.291Z,90.90
2023-01-25T19:03:42.668Z,90.90
2023-01-25T19:06:09.632Z,91.00
2023-01-25T19:08:41.192Z,91.00
2023-01-25T19:11:09.606Z,91.00
2023-01-25T19:13:37.138Z,91.00
2023-01-25T19:16:08.479Z,91.00
2023-01-25T19:18:40.724Z,91.00
2023-01-25T19:21:08.308Z,91.00
2023-01-25T19:23:36.273Z,91.00
2023-01-25T19:26:03.212Z,91.00
2023-01-25T19:28:30.299Z,91.00
2023-01-25T19:30:57.157Z,91.00
2023-01-25T19:33:23.934Z,90.90
2023-01-25T19:35:58.018Z,91.00
2023-01-25T19:38:24.987Z,91.00
2023-01-25T19:40:51.784Z,91.00
2023-01-25T19:43:18.662Z,90.90
2023-01-25T19:45:45.515Z,90.90
2023-01-25T19:48:12.363Z,90.90
2023-01-25T19:50:39.367Z,90.90
2023-01-25T19:53:07.048Z,90.90
2023-01-25T19:55:33.734Z,90.90
2023-01-25T19:58:05.048Z,90.90
2023-01-25T20:00:35.240Z,90.90
2023-01-25T20:03:15.603Z,90.80
2023-01-25T20:05:43.237Z,90.80
2023-01-25T20:08:09.958Z,90.80
2023-01-25T20:10:39.282Z,90.80
2023-01-25T20:13:09.594Z,90.80
2023-01-25T20:15:36.583Z,90.80
2023-01-25T20:18:03.379Z,90.80
2023-01-25T20:20:33.204Z,90.80
2023-01-25T20:23:05.213Z,90.80
2023-01-25T20:28:13.324Z,91.00
2023-01-25T20:30:40.043Z,91.00
2023-01-25T20:33:07.332Z,91.00
2023-01-25T20:35:34.004Z,91.00
2023-01-25T20:38:00.595Z,91.00
2023-01-25T20:40:27.704Z,91.00
2023-01-25T20:42:54.413Z,90.90
2023-01-25T20:45:21.136Z,91.00
2023-01-25T20:47:47.775Z,91.00
2023-01-25T20:50:17.576Z,91.00
2023-01-25T20:52:44.248Z,91.00
2023-01-25T20:55:11.373Z,90.90
2023-01-25T20:57:38.383Z,91.00
2023-01-25T21:00:05.340Z,91.00
2023-01-25T21:02:32.252Z,91.00
2023-01-25T21:04:58.876Z,91.10
2023-01-25T21:07:25.635Z,91.10
2023-01-25T21:09:52.307Z,91.10
2023-01-25T21:12:18.917Z,91.10
2023-01-25T21:14:45.705Z,91.00
2023-01-25T21:17:13.663Z,91.00
2023-01-25T21:19:40.323Z,91.00
2023-01-25T21:22:06.924Z,91.00
2023-01-25T21:24:33.721Z,91.00
2023-01-25T21:27:00.419Z,90.90
2023-01-25T21:29:27.094Z,90.90
2023-01-25T21:31:54.508Z,90.90
2023-01-25T21:34:21.249Z,90.90
2023-01-25T21:36:48.564Z,91.00
2023-01-25T21:39:15.311Z,91.00
2023-01-25T21:41:42.002Z,91.00
2023-01-25T21:44:27.891Z,91.10
2023-01-25T21:50:00.226Z,91.10
2023-01-25T21:52:26.896Z,91.10
2023-01-25T21:54:53.576Z,91.00
2023-01-25T21:57:20.472Z,91.00
2023-01-25T21:59:47.311Z,91.00
2023-01-25T22:02:14.776Z,91.00
2023-01-25T22:04:41.496Z,91.00
2023-01-25T22:07:08.654Z,91.00
2023-01-25T22:09:35.243Z,90.90
2023-01-25T22:12:02.039Z,91.00
2023-01-25T22:14:28.753Z,91.00
2023-01-25T22:16:58.736Z,91.10
2023-01-25T22:19:25.512Z,91.40
2023-01-25T22:21:52.284Z,91.00
2023-01-25T22:24:19.048Z,91.10
2023-01-25T22:26:45.720Z,91.20
2023-01-25T22:29:12.950Z,91.20
2023-01-25T22:31:39.991Z,91.10
2023-01-25T22:34:07.201Z,91.20
2023-01-25T22:36:34.145Z,91.30
2023-01-25T22:39:00.943Z,91.40
2023-01-25T22:41:28.930Z,91.70
2023-01-25T22:43:56.129Z,91.30
2023-01-25T22:46:23.868Z,91.30
2023-01-25T22:48:50.603Z,91.20
2023-01-25T22:51:19.165Z,91.20
2023-01-25T22:53:46.003Z,91.20
2023-01-25T22:56:17.079Z,91.40
2023-01-25T22:58:44.531Z,91.40
2023-01-25T23:01:12.952Z,91.80
2023-01-25T23:03:40.157Z,91.40
2023-01-25T23:06:08.045Z,91.50
2023-01-25T23:08:35.721Z,91.50
2023-01-25T23:11:03.380Z,91.50
2023-01-25T23:13:30.278Z,91.50
2023-01-25T23:16:00.470Z,91.60
2023-01-25T23:18:45.505Z,91.60
2023-01-25T23:21:12.151Z,91.60
2023-01-25T23:23:38.747Z,91.70
2023-01-25T23:26:05.629Z,91.60
2023-01-25T23:28:32.395Z,91.50
2023-01-25T23:31:19.690Z,91.40
2023-01-25T23:33:47.623Z,91.20
2023-01-25T23:36:15.553Z,91.30
2023-01-25T23:38:42.676Z,91.30
2023-01-25T23:41:09.525Z,91.30
2023-01-25T23:43:36.485Z,91.40
2023-01-25T23:46:03.168Z,91.30
2023-01-25T23:48:29.961Z,91.30
2023-01-25T23:50:58.378Z,91.30
2023-01-25T23:53:25.863Z,91.30
2023-01-25T23:55:53.470Z,91.20
2023-01-25T23:58:20.377Z,91.10
